sensor_id;sensor_type;location;lat;lon;timestamp;pressure;altitude;pressure_sealevel;temperature;humidity
5755;BME280;2902;42.130;24.732;2022-11-15T00:01:07;100237.53;;;8.25;93.58
5755;BME280;2902;42.130;24.732;2022-11-15T00:03:34;100235.03;;;8.23;94.16
5755;BME280;2902;42.130;24.732;2022-11-15T00:06:03;100237.53;;;8.25;94.15
5755;BME280;2902;42.130;24.732;2022-11-15T00:08:31;100235.53;;;8.27;93.80
5755;BME280;2902;42.130;24.732;2022-11-15T00:10:59;100241.34;;;8.30;94.14
5755;BME280;2902;42.130;24.732;2022-11-15T00:13:26;100235.69;;;8.25;94.58
5755;BME280;2902;42.130;24.732;2022-11-15T00:15:56;100238.69;;;8.22;94.09
5755;BME280;2902;42.130;24.732;2022-11-15T00:18:23;100228.91;;;8.23;93.79
5755;BME280;2902;42.130;24.732;2022-11-15T00:20:50;100235.53;;;8.27;94.32
5755;BME280;2902;42.130;24.732;2022-11-15T00:23:18;100240.50;;;8.30;93.57
5755;BME280;2902;42.130;24.732;2022-11-15T00:25:45;100241.13;;;8.24;94.02
5755;BME280;2902;42.130;24.732;2022-11-15T00:28:11;100238.63;;;8.14;93.58
5755;BME280;2902;42.130;24.732;2022-11-15T00:30:38;100235.13;;;8.06;94.34
5755;BME280;2902;42.130;24.732;2022-11-15T00:33:05;100237.47;;;8.09;94.07
5755;BME280;2902;42.130;24.732;2022-11-15T00:35:33;100234.81;;;8.17;95.47
5755;BME280;2902;42.130;24.732;2022-11-15T00:38:00;100231.84;;;8.20;94.83
5755;BME280;2902;42.130;24.732;2022-11-15T00:40:28;100235.84;;;8.24;94.83
5755;BME280;2902;42.130;24.732;2022-11-15T00:42:55;100229.91;;;8.30;94.51
5755;BME280;2902;42.130;24.732;2022-11-15T00:45:22;100227.91;;;8.32;92.87
5755;BME280;2902;42.130;24.732;2022-11-15T00:47:49;100229.25;;;8.36;94.35
5755;BME280;2902;42.130;24.732;2022-11-15T00:50:17;100227.59;;;8.35;92.96
5755;BME280;2902;42.130;24.732;2022-11-15T00:52:44;100224.81;;;8.44;93.36
5755;BME280;2902;42.130;24.732;2022-11-15T00:55:13;100220.66;;;8.50;93.00
5755;BME280;2902;42.130;24.732;2022-11-15T00:57:42;100221.00;;;8.55;93.06
5755;BME280;2902;42.130;24.732;2022-11-15T01:00:09;100213.53;;;8.50;93.17
5755;BME280;2902;42.130;24.732;2022-11-15T01:02:36;100223.00;;;8.45;92.58
5755;BME280;2902;42.130;24.732;2022-11-15T01:05:03;100221.16;;;8.37;93.39
5755;BME280;2902;42.130;24.732;2022-11-15T01:07:30;100219.19;;;8.39;92.65
5755;BME280;2902;42.130;24.732;2022-11-15T01:09:57;100223.16;;;8.43;92.82
5755;BME280;2902;42.130;24.732;2022-11-15T01:12:24;100219.03;;;8.49;93.52
5755;BME280;2902;42.130;24.732;2022-11-15T01:14:52;100217.03;;;8.51;93.04
5755;BME280;2902;42.130;24.732;2022-11-15T01:17:18;100209.75;;;8.45;92.41
5755;BME280;2902;42.130;24.732;2022-11-15T01:19:45;100213.38;;;8.52;93.07
5755;BME280;2902;42.130;24.732;2022-11-15T01:22:12;100212.06;;;8.48;92.75
5755;BME280;2902;42.130;24.732;2022-11-15T01:24:38;100199.97;;;8.37;93.10
5755;BME280;2902;42.130;24.732;2022-11-15T01:27:05;100210.72;;;8.28;93.81
5755;BME280;2902;42.130;24.732;2022-11-15T01:29:32;100208.84;;;8.20;94.07
5755;BME280;2902;42.130;24.732;2022-11-15T01:32:01;100208.38;;;8.17;94.57
5755;BME280;2902;42.130;24.732;2022-11-15T01:34:27;100209.34;;;8.16;93.64
5755;BME280;2902;42.130;24.732;2022-11-15T01:36:54;100215.94;;;8.12;93.66
5755;BME280;2902;42.130;24.732;2022-11-15T01:39:21;100202.38;;;8.07;94.15
5755;BME280;2902;42.130;24.732;2022-11-15T01:41:47;100205.34;;;8.12;94.40
5755;BME280;2902;42.130;24.732;2022-11-15T01:44:41;100202.06;;;8.10;94.39
5755;BME280;2902;42.130;24.732;2022-11-15T01:47:12;100199.41;;;8.10;95.71
5755;BME280;2902;42.130;24.732;2022-11-15T01:49:48;100192.50;;;8.17;95.84
5755;BME280;2902;42.130;24.732;2022-11-15T01:52:19;100193.50;;;8.24;94.96
5755;BME280;2902;42.130;24.732;2022-11-15T01:54:47;100190.84;;;8.24;93.93
5755;BME280;2902;42.130;24.732;2022-11-15T01:57:15;100190.22;;;8.22;94.31
5755;BME280;2902;42.130;24.732;2022-11-15T01:59:43;100191.34;;;8.19;93.77
5755;BME280;2902;42.130;24.732;2022-11-15T02:02:12;100198.09;;;8.14;93.35
5755;BME280;2902;42.130;24.732;2022-11-15T02:04:41;100198.94;;;8.14;94.17
5755;BME280;2902;42.130;24.732;2022-11-15T02:07:10;100196.34;;;8.22;94.78
5755;BME280;2902;42.130;24.732;2022-11-15T02:09:38;100197.47;;;8.28;94.86
5755;BME280;2902;42.130;24.732;2022-11-15T02:12:06;100196.16;;;8.32;94.02
5755;BME280;2902;42.130;24.732;2022-11-15T02:14:34;100191.22;;;8.29;94.15
5755;BME280;2902;42.130;24.732;2022-11-15T02:17:07;100189.53;;;8.28;94.70
5755;BME280;2902;42.130;24.732;2022-11-15T02:20:08;100193.34;;;8.25;93.03
5755;BME280;2902;42.130;24.732;2022-11-15T02:22:47;100185.19;;;8.19;93.56
5755;BME280;2902;42.130;24.732;2022-11-15T02:25:37;100186.25;;;8.26;94.07
5755;BME280;2902;42.130;24.732;2022-11-15T02:28:26;100190.69;;;8.25;93.46
5755;BME280;2902;42.130;24.732;2022-11-15T02:31:03;100187.69;;;8.20;93.67
5755;BME280;2902;42.130;24.732;2022-11-15T02:33:36;100187.19;;;8.17;94.16
5755;BME280;2902;42.130;24.732;2022-11-15T02:36:09;100188.84;;;8.18;94.58
5755;BME280;2902;42.130;24.732;2022-11-15T02:38:43;100182.09;;;8.23;94.51
5755;BME280;2902;42.130;24.732;2022-11-15T02:41:15;100180.94;;;8.26;94.45
5755;BME280;2902;42.130;24.732;2022-11-15T02:43:45;100183.28;;;8.29;93.97
5755;BME280;2902;42.130;24.732;2022-11-15T02:46:27;100175.50;;;8.35;94.65
5755;BME280;2902;42.130;24.732;2022-11-15T02:49:11;100170.38;;;8.42;94.37
5755;BME280;2902;42.130;24.732;2022-11-15T02:51:38;100174.03;;;8.49;93.95
5755;BME280;2902;42.130;24.732;2022-11-15T02:54:06;100173.97;;;8.57;94.37
5755;BME280;2902;42.130;24.732;2022-11-15T02:56:33;100177.78;;;8.62;93.39
5755;BME280;2902;42.130;24.732;2022-11-15T02:59:12;100172.31;;;8.72;93.76
5755;BME280;2902;42.130;24.732;2022-11-15T03:01:53;100170.00;;;8.77;92.17
5755;BME280;2902;42.130;24.732;2022-11-15T03:04:28;100170.00;;;8.77;92.80
5755;BME280;2902;42.130;24.732;2022-11-15T03:07:08;100167.00;;;8.80;92.51
5755;BME280;2902;42.130;24.732;2022-11-15T03:09:42;100175.63;;;8.82;91.69
5755;BME280;2902;42.130;24.732;2022-11-15T03:12:16;100172.16;;;8.81;91.72
5755;BME280;2902;42.130;24.732;2022-11-15T03:14:51;100172.63;;;8.85;91.56
5755;BME280;2902;42.130;24.732;2022-11-15T03:17:23;100170.31;;;8.90;92.07
5755;BME280;2902;42.130;24.732;2022-11-15T03:19:54;100171.66;;;8.94;92.49
5755;BME280;2902;42.130;24.732;2022-11-15T03:22:24;100169.97;;;8.93;92.00
5755;BME280;2902;42.130;24.732;2022-11-15T03:24:55;100180.06;;;8.97;91.89
5755;BME280;2902;42.130;24.732;2022-11-15T03:27:25;100167.00;;;8.96;91.38
5755;BME280;2902;42.130;24.732;2022-11-15T03:29:58;100168.31;;;8.92;91.26
5755;BME280;2902;42.130;24.732;2022-11-15T03:32:29;100166.81;;;8.97;92.63
5755;BME280;2902;42.130;24.732;2022-11-15T03:35:00;100168.63;;;8.97;92.48
5755;BME280;2902;42.130;24.732;2022-11-15T03:37:32;100162.38;;;8.90;91.79
5755;BME280;2902;42.130;24.732;2022-11-15T03:40:01;100155.25;;;8.90;91.70
5755;BME280;2902;42.130;24.732;2022-11-15T03:42:32;100156.25;;;8.89;92.61
5755;BME280;2902;42.130;24.732;2022-11-15T03:45:04;100154.44;;;8.90;92.34
5755;BME280;2902;42.130;24.732;2022-11-15T03:47:39;100146.66;;;8.88;92.23
5755;BME280;2902;42.130;24.732;2022-11-15T03:50:10;100148.13;;;8.91;91.58
5755;BME280;2902;42.130;24.732;2022-11-15T03:52:40;100134.22;;;8.81;91.26
5755;BME280;2902;42.130;24.732;2022-11-15T03:55:10;100142.69;;;8.84;91.88
5755;BME280;2902;42.130;24.732;2022-11-15T03:57:37;100137.22;;;8.86;92.25
5755;BME280;2902;42.130;24.732;2022-11-15T04:00:05;100141.69;;;8.85;92.34
5755;BME280;2902;42.130;24.732;2022-11-15T04:02:32;100135.56;;;8.77;92.20
5755;BME280;2902;42.130;24.732;2022-11-15T04:05:00;100136.56;;;8.76;92.59
5755;BME280;2902;42.130;24.732;2022-11-15T04:07:27;100131.97;;;8.70;91.91
5755;BME280;2902;42.130;24.732;2022-11-15T04:09:53;100130.50;;;8.59;91.97
5755;BME280;2902;42.130;24.732;2022-11-15T04:12:29;100122.38;;;8.53;91.70
5755;BME280;2902;42.130;24.732;2022-11-15T04:15:00;100128.16;;;8.48;92.12
5755;BME280;2902;42.130;24.732;2022-11-15T04:17:37;100120.56;;;8.45;91.72
5755;BME280;2902;42.130;24.732;2022-11-15T04:20:08;100115.78;;;8.41;92.70
5755;BME280;2902;42.130;24.732;2022-11-15T04:22:54;100119.41;;;8.40;92.40
5755;BME280;2902;42.130;24.732;2022-11-15T04:25:38;100113.47;;;8.38;92.43
5755;BME280;2902;42.130;24.732;2022-11-15T04:28:05;100110.28;;;8.34;93.42
5755;BME280;2902;42.130;24.732;2022-11-15T04:30:31;100112.47;;;8.39;93.66
5755;BME280;2902;42.130;24.732;2022-11-15T04:32:58;100115.44;;;8.44;93.61
5755;BME280;2902;42.130;24.732;2022-11-15T04:35:26;100112.78;;;8.44;94.23
5755;BME280;2902;42.130;24.732;2022-11-15T04:37:53;100110.28;;;8.50;92.90
5755;BME280;2902;42.130;24.732;2022-11-15T04:40:19;100120.72;;;8.52;92.38
5755;BME280;2902;42.130;24.732;2022-11-15T04:42:46;100117.41;;;8.50;92.20
5755;BME280;2902;42.130;24.732;2022-11-15T04:45:13;100118.59;;;8.39;92.37
5755;BME280;2902;42.130;24.732;2022-11-15T04:47:39;100116.44;;;8.35;92.25
5755;BME280;2902;42.130;24.732;2022-11-15T04:50:07;100113.78;;;8.27;91.36
5755;BME280;2902;42.130;24.732;2022-11-15T04:52:35;100116.59;;;8.25;93.76
5755;BME280;2902;42.130;24.732;2022-11-15T04:55:02;100116.28;;;8.28;93.11
5755;BME280;2902;42.130;24.732;2022-11-15T04:57:29;100118.44;;;8.25;93.20
5755;BME280;2902;42.130;24.732;2022-11-15T04:59:56;100117.44;;;8.26;92.85
5755;BME280;2902;42.130;24.732;2022-11-15T05:02:22;100121.25;;;8.31;93.79
5755;BME280;2902;42.130;24.732;2022-11-15T05:04:49;100104.50;;;8.55;96.89
5755;BME280;2902;42.130;24.732;2022-11-15T05:07:14;100115.72;;;8.57;92.99
5755;BME280;2902;42.130;24.732;2022-11-15T05:09:43;100108.47;;;8.59;91.90
5755;BME280;2902;42.130;24.732;2022-11-15T05:12:09;100084.31;;;8.54;91.94
5755;BME280;2902;42.130;24.732;2022-11-15T05:14:36;100109.44;;;8.66;91.06
5755;BME280;2902;42.130;24.732;2022-11-15T05:17:03;100118.38;;;8.65;91.24
5755;BME280;2902;42.130;24.732;2022-11-15T05:19:29;100112.75;;;8.68;91.52
5755;BME280;2902;42.130;24.732;2022-11-15T05:21:56;100118.03;;;8.68;91.39
5755;BME280;2902;42.130;24.732;2022-11-15T05:24:23;100114.91;;;8.72;91.45
5755;BME280;2902;42.130;24.732;2022-11-15T05:26:51;100111.41;;;8.72;91.25
5755;BME280;2902;42.130;24.732;2022-11-15T05:29:17;100114.22;;;8.70;90.39
5755;BME280;2902;42.130;24.732;2022-11-15T05:31:44;100110.41;;;8.73;90.33
5755;BME280;2902;42.130;24.732;2022-11-15T05:34:11;100110.78;;;8.70;90.04
5755;BME280;2902;42.130;24.732;2022-11-15T05:36:38;100114.38;;;8.69;90.40
5755;BME280;2902;42.130;24.732;2022-11-15T05:39:07;100110.09;;;8.68;90.38
5755;BME280;2902;42.130;24.732;2022-11-15T05:41:37;100115.06;;;8.63;90.40
5755;BME280;2902;42.130;24.732;2022-11-15T05:44:10;100124.34;;;8.59;90.75
5755;BME280;2902;42.130;24.732;2022-11-15T05:46:38;100118.38;;;8.65;90.99
5755;BME280;2902;42.130;24.732;2022-11-15T05:49:10;100112.75;;;8.68;91.07
5755;BME280;2902;42.130;24.732;2022-11-15T05:51:38;100128.94;;;8.81;90.87
5755;BME280;2902;42.130;24.732;2022-11-15T05:54:05;100127.28;;;8.80;89.50
5755;BME280;2902;42.130;24.732;2022-11-15T05:56:32;100132.28;;;8.67;88.02
5755;BME280;2902;42.130;24.732;2022-11-15T05:58:59;100131.28;;;8.60;88.69
5755;BME280;2902;42.130;24.732;2022-11-15T06:01:27;100140.41;;;8.57;88.00
5755;BME280;2902;42.130;24.732;2022-11-15T06:03:54;100134.31;;;8.49;87.73
5755;BME280;2902;42.130;24.732;2022-11-15T06:06:21;100129.00;;;8.49;88.55
5755;BME280;2902;42.130;24.732;2022-11-15T06:08:47;100134.94;;;8.59;88.64
5755;BME280;2902;42.130;24.732;2022-11-15T06:11:14;100137.25;;;8.78;88.29
5755;BME280;2902;42.130;24.732;2022-11-15T06:13:41;100142.66;;;8.92;88.03
5755;BME280;2902;42.130;24.732;2022-11-15T06:16:07;100137.66;;;9.05;87.12
5755;BME280;2902;42.130;24.732;2022-11-15T06:18:36;100140.13;;;9.15;87.04
5755;BME280;2902;42.130;24.732;2022-11-15T06:21:03;100138.53;;;9.28;87.01
5755;BME280;2902;42.130;24.732;2022-11-15T06:23:32;100143.84;;;9.28;86.46
5755;BME280;2902;42.130;24.732;2022-11-15T06:25:59;100142.00;;;9.37;86.09
5755;BME280;2902;42.130;24.732;2022-11-15T06:28:28;100147.09;;;9.46;86.37
5755;BME280;2902;42.130;24.732;2022-11-15T06:30:54;100143.56;;;9.54;85.65
5755;BME280;2902;42.130;24.732;2022-11-15T06:33:21;100145.34;;;9.61;85.34
5755;BME280;2902;42.130;24.732;2022-11-15T06:35:49;100145.13;;;9.71;85.69
5755;BME280;2902;42.130;24.732;2022-11-15T06:38:16;100142.09;;;9.82;85.01
5755;BME280;2902;42.130;24.732;2022-11-15T06:40:42;100140.34;;;9.97;84.78
5755;BME280;2902;42.130;24.732;2022-11-15T06:43:09;100143.09;;;10.11;85.03
5755;BME280;2902;42.130;24.732;2022-11-15T06:45:36;100141.63;;;10.31;83.31
5755;BME280;2902;42.130;24.732;2022-11-15T06:48:03;100152.22;;;10.54;82.47
5755;BME280;2902;42.130;24.732;2022-11-15T06:50:30;100150.78;;;10.80;81.76
5755;BME280;2902;42.130;24.732;2022-11-15T06:53:02;100151.09;;;11.00;80.11
5755;BME280;2902;42.130;24.732;2022-11-15T06:55:29;100151.25;;;11.13;79.16
5755;BME280;2902;42.130;24.732;2022-11-15T06:57:56;100160.69;;;11.16;77.05
5755;BME280;2902;42.130;24.732;2022-11-15T07:00:23;100152.19;;;11.06;76.95
5755;BME280;2902;42.130;24.732;2022-11-15T07:02:50;100153.91;;;11.13;76.12
5755;BME280;2902;42.130;24.732;2022-11-15T07:05:16;100154.28;;;11.25;76.13
5755;BME280;2902;42.130;24.732;2022-11-15T07:07:43;100155.94;;;11.26;74.78
5755;BME280;2902;42.130;24.732;2022-11-15T07:10:18;100156.41;;;11.29;74.34
5755;BME280;2902;42.130;24.732;2022-11-15T07:12:46;100153.28;;;11.40;74.17
5755;BME280;2902;42.130;24.732;2022-11-15T07:15:13;100153.44;;;11.53;75.04
5755;BME280;2902;42.130;24.732;2022-11-15T07:17:40;100141.84;;;11.75;74.30
5755;BME280;2902;42.130;24.732;2022-11-15T07:20:07;100148.78;;;11.91;71.89
5755;BME280;2902;42.130;24.732;2022-11-15T07:22:34;100147.09;;;12.04;72.87
5755;BME280;2902;42.130;24.732;2022-11-15T07:25:01;100144.75;;;12.16;71.97
5755;BME280;2902;42.130;24.732;2022-11-15T07:27:29;100145.31;;;12.32;71.87
5755;BME280;2902;42.130;24.732;2022-11-15T07:29:56;100154.69;;;12.49;70.11
5755;BME280;2902;42.130;24.732;2022-11-15T07:32:22;100153.16;;;12.61;69.18
5755;BME280;2902;42.130;24.732;2022-11-15T07:34:49;100158.97;;;12.71;68.71
5755;BME280;2902;42.130;24.732;2022-11-15T07:37:16;100151.03;;;12.78;69.02
5755;BME280;2902;42.130;24.732;2022-11-15T07:39:43;100153.47;;;13.00;68.31
5755;BME280;2902;42.130;24.732;2022-11-15T07:42:10;100112.47;;;13.48;79.63
5755;BME280;2902;42.130;24.732;2022-11-15T07:44:55;100113.75;;;14.51;79.02
5755;BME280;2902;42.130;24.732;2022-11-15T07:47:22;100150.84;;;15.44;69.13
5755;BME280;2902;42.130;24.732;2022-11-15T07:49:49;100162.63;;;16.25;65.03
5755;BME280;2902;42.130;24.732;2022-11-15T07:52:15;100141.69;;;16.89;62.34
5755;BME280;2902;42.130;24.732;2022-11-15T07:54:42;100151.91;;;17.59;58.00
5755;BME280;2902;42.130;24.732;2022-11-15T07:57:09;100141.97;;;18.07;53.85
5755;BME280;2902;42.130;24.732;2022-11-15T07:59:35;100132.88;;;18.49;54.03
5755;BME280;2902;42.130;24.732;2022-11-15T08:02:03;100135.84;;;18.82;53.91
5755;BME280;2902;42.130;24.732;2022-11-15T08:04:30;100141.94;;;19.12;50.72
5755;BME280;2902;42.130;24.732;2022-11-15T08:06:57;100132.56;;;19.37;45.66
5755;BME280;2902;42.130;24.732;2022-11-15T08:09:24;100136.09;;;19.15;45.11
5755;BME280;2902;42.130;24.732;2022-11-15T08:11:50;100136.44;;;18.84;45.60
5755;BME280;2902;42.130;24.732;2022-11-15T08:14:17;100124.13;;;18.65;47.30
5755;BME280;2902;42.130;24.732;2022-11-15T08:16:44;100126.59;;;18.55;47.83
5755;BME280;2902;42.130;24.732;2022-11-15T08:19:12;100120.47;;;18.36;47.89
5755;BME280;2902;42.130;24.732;2022-11-15T08:21:38;100117.72;;;18.25;47.56
5755;BME280;2902;42.130;24.732;2022-11-15T08:24:08;100112.88;;;18.45;53.15
5755;BME280;2902;42.130;24.732;2022-11-15T08:26:35;100121.56;;;18.93;51.38
5755;BME280;2902;42.130;24.732;2022-11-15T08:29:02;100111.72;;;19.33;49.99
5755;BME280;2902;42.130;24.732;2022-11-15T08:31:29;100115.91;;;19.52;45.86
5755;BME280;2902;42.130;24.732;2022-11-15T08:33:56;100118.69;;;19.57;47.52
5755;BME280;2902;42.130;24.732;2022-11-15T08:36:24;100115.88;;;19.91;45.73
5755;BME280;2902;42.130;24.732;2022-11-15T08:38:50;100125.53;;;20.04;44.29
5755;BME280;2902;42.130;24.732;2022-11-15T08:41:24;100119.44;;;20.08;44.33
5755;BME280;2902;42.130;24.732;2022-11-15T08:43:51;100112.16;;;20.09;44.36
5755;BME280;2902;42.130;24.732;2022-11-15T08:46:18;100109.03;;;20.28;44.13
5755;BME280;2902;42.130;24.732;2022-11-15T08:48:45;100105.03;;;20.03;44.12
5755;BME280;2902;42.130;24.732;2022-11-15T08:51:12;100108.94;;;19.67;45.95
5755;BME280;2902;42.130;24.732;2022-11-15T08:53:40;100092.78;;;19.84;49.19
5755;BME280;2902;42.130;24.732;2022-11-15T08:56:07;100100.22;;;20.05;45.86
5755;BME280;2902;42.130;24.732;2022-11-15T08:58:34;100091.63;;;19.80;47.64
5755;BME280;2902;42.130;24.732;2022-11-15T09:01:01;100084.22;;;19.59;46.55
5755;BME280;2902;42.130;24.732;2022-11-15T09:03:28;100090.63;;;19.30;47.28
5755;BME280;2902;42.130;24.732;2022-11-15T09:05:55;100072.16;;;18.87;48.93
5755;BME280;2902;42.130;24.732;2022-11-15T09:08:22;100063.88;;;18.77;49.25
5755;BME280;2902;42.130;24.732;2022-11-15T09:10:50;100062.94;;;18.72;50.00
5755;BME280;2902;42.130;24.732;2022-11-15T09:13:17;100055.22;;;18.87;50.45
5755;BME280;2902;42.130;24.732;2022-11-15T09:15:44;100048.06;;;18.81;50.82
5755;BME280;2902;42.130;24.732;2022-11-15T09:18:10;100044.75;;;19.02;53.77
5755;BME280;2902;42.130;24.732;2022-11-15T09:20:37;100041.41;;;19.23;49.89
5755;BME280;2902;42.130;24.732;2022-11-15T09:23:04;100031.72;;;19.33;49.61
5755;BME280;2902;42.130;24.732;2022-11-15T09:25:31;100026.94;;;19.24;50.44
5755;BME280;2902;42.130;24.732;2022-11-15T09:27:59;100024.94;;;19.19;49.92
5755;BME280;2902;42.130;24.732;2022-11-15T09:30:26;100023.75;;;19.15;49.92
5755;BME280;2902;42.130;24.732;2022-11-15T09:32:53;100018.22;;;18.82;50.05
5755;BME280;2902;42.130;24.732;2022-11-15T09:35:19;100005.84;;;18.58;51.79
5755;BME280;2902;42.130;24.732;2022-11-15T09:37:46;100014.84;;;18.41;52.06
5755;BME280;2902;42.130;24.732;2022-11-15T09:40:14;100006.91;;;18.46;52.64
5755;BME280;2902;42.130;24.732;2022-11-15T09:43:04;99997.78;;;18.70;51.95
5755;BME280;2902;42.130;24.732;2022-11-15T09:45:40;99999.34;;;18.94;52.58
5755;BME280;2902;42.130;24.732;2022-11-15T09:48:25;99998.72;;;19.15;50.05
5755;BME280;2902;42.130;24.732;2022-11-15T09:50:54;99994.88;;;19.11;50.12
5755;BME280;2902;42.130;24.732;2022-11-15T09:53:27;99999.88;;;19.19;50.22
5755;BME280;2902;42.130;24.732;2022-11-15T09:55:59;99998.56;;;19.33;49.39
5755;BME280;2902;42.130;24.732;2022-11-15T09:58:34;99999.25;;;19.40;49.21
5755;BME280;2902;42.130;24.732;2022-11-15T10:01:06;99988.25;;;19.30;49.12
5755;BME280;2902;42.130;24.732;2022-11-15T10:03:35;99987.16;;;19.03;49.56
5755;BME280;2902;42.130;24.732;2022-11-15T10:06:04;99979.69;;;18.82;50.15
5755;BME280;2902;42.130;24.732;2022-11-15T10:08:47;99966.47;;;18.92;50.01
5755;BME280;2902;42.130;24.732;2022-11-15T10:11:19;99971.09;;;19.08;49.91
5755;BME280;2902;42.130;24.732;2022-11-15T10:13:50;99967.91;;;19.22;49.63
5755;BME280;2902;42.130;24.732;2022-11-15T10:16:35;99964.47;;;19.38;49.17
5755;BME280;2902;42.130;24.732;2022-11-15T10:19:10;99959.72;;;19.45;49.46
5755;BME280;2902;42.130;24.732;2022-11-15T10:21:50;99952.38;;;19.41;48.96
5755;BME280;2902;42.130;24.732;2022-11-15T10:24:25;99950.03;;;19.05;50.26
5755;BME280;2902;42.130;24.732;2022-11-15T10:26:54;99954.34;;;19.06;50.62
5755;BME280;2902;42.130;24.732;2022-11-15T10:29:24;99951.09;;;19.04;50.53
5755;BME280;2902;42.130;24.732;2022-11-15T10:31:51;99946.66;;;18.98;50.12
5755;BME280;2902;42.130;24.732;2022-11-15T10:34:20;99941.06;;;18.48;50.98
5755;BME280;2902;42.130;24.732;2022-11-15T10:36:54;99941.06;;;18.48;50.89
5755;BME280;2902;42.130;24.732;2022-11-15T10:39:21;99933.53;;;18.62;51.24
5755;BME280;2902;42.130;24.732;2022-11-15T10:41:49;99924.34;;;18.86;51.31
5755;BME280;2902;42.130;24.732;2022-11-15T10:44:42;99918.72;;;18.87;49.33
5755;BME280;2902;42.130;24.732;2022-11-15T10:47:32;99914.03;;;18.94;48.86
5755;BME280;2902;42.130;24.732;2022-11-15T10:50:05;99911.22;;;18.89;50.25
5755;BME280;2902;42.130;24.732;2022-11-15T10:52:35;99915.50;;;18.74;50.18
5755;BME280;2902;42.130;24.732;2022-11-15T10:55:12;99915.78;;;18.49;51.06
5755;BME280;2902;42.130;24.732;2022-11-15T10:57:50;99907.94;;;18.48;51.20
5755;BME280;2902;42.130;24.732;2022-11-15T11:00:32;99901.38;;;18.44;51.74
5755;BME280;2902;42.130;24.732;2022-11-15T11:03:01;99893.69;;;18.36;52.00
5755;BME280;2902;42.130;24.732;2022-11-15T11:05:30;99896.16;;;18.37;51.15
5755;BME280;2902;42.130;24.732;2022-11-15T11:08:00;99892.03;;;18.12;51.71
5755;BME280;2902;42.130;24.732;2022-11-15T11:10:28;99874.03;;;17.78;53.08
5755;BME280;2902;42.130;24.732;2022-11-15T11:12:55;99875.44;;;17.69;53.15
5755;BME280;2902;42.130;24.732;2022-11-15T11:15:24;99871.09;;;17.45;53.73
5755;BME280;2902;42.130;24.732;2022-11-15T11:18:03;99872.88;;;17.51;54.04
5755;BME280;2902;42.130;24.732;2022-11-15T11:20:37;99867.72;;;17.61;53.46
5755;BME280;2902;42.130;24.732;2022-11-15T11:23:19;99861.78;;;17.70;53.54
5755;BME280;2902;42.130;24.732;2022-11-15T11:25:55;99855.25;;;17.66;53.70
5755;BME280;2902;42.130;24.732;2022-11-15T11:28:37;99847.97;;;17.67;54.24
5755;BME280;2902;42.130;24.732;2022-11-15T11:31:16;99851.25;;;17.80;53.88
5755;BME280;2902;42.130;24.732;2022-11-15T11:33:52;99841.44;;;17.63;53.51
5755;BME280;2902;42.130;24.732;2022-11-15T11:36:26;99834.09;;;17.70;53.63
5755;BME280;2902;42.130;24.732;2022-11-15T11:39:00;99833.97;;;17.65;53.64
5755;BME280;2902;42.130;24.732;2022-11-15T11:41:55;99831.53;;;17.63;53.56
5755;BME280;2902;42.130;24.732;2022-11-15T11:44:34;99829.44;;;17.65;53.67
5755;BME280;2902;42.130;24.732;2022-11-15T11:47:09;99828.25;;;17.73;53.71
5755;BME280;2902;42.130;24.732;2022-11-15T11:49:43;99821.00;;;17.85;52.98
5755;BME280;2902;42.130;24.732;2022-11-15T11:52:16;99820.06;;;17.91;52.85
5755;BME280;2902;42.130;24.732;2022-11-15T11:54:55;99806.38;;;17.92;52.71
5755;BME280;2902;42.130;24.732;2022-11-15T11:57:32;99813.97;;;18.07;52.02
5755;BME280;2902;42.130;24.732;2022-11-15T12:00:03;99815.34;;;18.09;51.87
5755;BME280;2902;42.130;24.732;2022-11-15T12:02:35;99799.38;;;17.91;52.49
5755;BME280;2902;42.130;24.732;2022-11-15T12:05:13;99803.00;;;17.74;52.92
5755;BME280;2902;42.130;24.732;2022-11-15T12:07:45;99813.53;;;17.64;53.50
5755;BME280;2902;42.130;24.732;2022-11-15T12:10:19;99799.16;;;17.58;53.23
5755;BME280;2902;42.130;24.732;2022-11-15T12:12:54;99795.09;;;17.56;53.53
5755;BME280;2902;42.130;24.732;2022-11-15T12:15:24;99789.22;;;17.47;53.69
5755;BME280;2902;42.130;24.732;2022-11-15T12:17:54;99783.38;;;17.39;53.62
5755;BME280;2902;42.130;24.732;2022-11-15T12:20:24;99779.97;;;17.32;54.34
5755;BME280;2902;42.130;24.732;2022-11-15T12:22:55;99774.09;;;17.12;55.07
5755;BME280;2902;42.130;24.732;2022-11-15T12:25:29;99775.50;;;17.14;54.58
5755;BME280;2902;42.130;24.732;2022-11-15T12:27:59;99764.19;;;17.24;54.64
5755;BME280;2902;42.130;24.732;2022-11-15T12:30:40;99764.66;;;17.21;54.46
5755;BME280;2902;42.130;24.732;2022-11-15T12:33:32;99764.19;;;17.24;54.61
5755;BME280;2902;42.130;24.732;2022-11-15T12:36:04;99764.09;;;17.19;54.52
5755;BME280;2902;42.130;24.732;2022-11-15T12:38:56;99753.47;;;17.24;54.60
5755;BME280;2902;42.130;24.732;2022-11-15T12:41:25;99755.88;;;17.14;54.70
5755;BME280;2902;42.130;24.732;2022-11-15T12:43:52;99747.28;;;16.71;56.35
5755;BME280;2902;42.130;24.732;2022-11-15T12:46:22;99749.22;;;16.52;57.29
5755;BME280;2902;42.130;24.732;2022-11-15T12:48:54;99747.38;;;16.53;57.25
5755;BME280;2902;42.130;24.732;2022-11-15T12:54:59;99741.25;;;16.28;58.07
5755;BME280;2902;42.130;24.732;2022-11-15T12:57:35;99732.41;;;16.27;58.34
5755;BME280;2902;42.130;24.732;2022-11-15T13:03:27;99720.06;;;16.26;58.62
5755;BME280;2902;42.130;24.732;2022-11-15T13:06:10;99723.47;;;16.04;59.09
5755;BME280;2902;42.130;24.732;2022-11-15T13:08:58;99719.28;;;16.08;59.43
5755;BME280;2902;42.130;24.732;2022-11-15T13:11:45;99722.09;;;16.13;59.29
5755;BME280;2902;42.130;24.732;2022-11-15T13:14:41;99714.81;;;16.02;59.75
5755;BME280;2902;42.130;24.732;2022-11-15T13:17:29;99712.81;;;15.97;59.96
5755;BME280;2902;42.130;24.732;2022-11-15T13:20:21;99708.00;;;15.88;60.72
5755;BME280;2902;42.130;24.732;2022-11-15T13:22:50;99709.63;;;15.52;62.12
5755;BME280;2902;42.130;24.732;2022-11-15T13:25:20;99702.19;;;15.54;62.41
5755;BME280;2902;42.130;24.732;2022-11-15T13:27:48;99692.38;;;15.48;62.27
5755;BME280;2902;42.130;24.732;2022-11-15T13:30:19;99692.06;;;15.56;62.18
5755;BME280;2902;42.130;24.732;2022-11-15T13:32:47;99687.31;;;15.58;62.32